createdAt,value
2023-05-21T00:00:39.747Z,0.0000
2023-05-21T00:01:42.453Z,0.0000
2023-05-21T00:02:44.924Z,0.0000
2023-05-21T00:03:46.911Z,0.0000
2023-05-21T00:04:48.698Z,0.0000
2023-05-21T00:06:51.869Z,0.0000
2023-05-21T00:07:53.534Z,0.0000
2023-05-21T00:08:55.210Z,0.0000
2023-05-21T00:09:57.520Z,0.0000
2023-05-21T00:10:59.845Z,0.0000
2023-05-21T00:12:02.217Z,0.0000
2023-05-21T00:13:04.735Z,0.0000
2023-05-21T00:14:06.405Z,0.0000
2023-05-21T00:15:08.290Z,0.0000
2023-05-21T00:16:10.164Z,0.0000
2023-05-21T00:17:12.418Z,0.0000
2023-05-21T00:18:14.760Z,0.0000
2023-05-21T00:19:17.957Z,0.0000
2023-05-21T00:26:29.185Z,0.0000
2023-05-21T00:27:31.702Z,0.0000
2023-05-21T00:28:33.355Z,0.0000
2023-05-21T00:29:35.010Z,0.0000
2023-05-21T00:30:37.829Z,0.0000
2023-05-21T00:31:39.532Z,0.0000
2023-05-21T00:32:41.240Z,0.0000
2023-05-21T00:33:44.009Z,0.0000
2023-05-21T00:35:44.367Z,0.0000
2023-05-21T00:36:46.019Z,0.0000
2023-05-21T00:37:47.688Z,0.0000
2023-05-21T00:38:51.037Z,0.0000
2023-05-21T00:40:52.763Z,0.0000
2023-05-21T00:41:54.847Z,0.0000
2023-05-21T00:43:58.322Z,0.0000
2023-05-21T00:45:00.008Z,0.0000
2023-05-21T00:48:04.620Z,0.0000
2023-05-21T00:49:06.301Z,0.0000
2023-05-21T00:50:07.953Z,0.0000
2023-05-21T00:51:09.591Z,0.0000
2023-05-21T00:52:10.164Z,0.0000
2023-05-21T00:53:11.807Z,0.0000
2023-05-21T00:54:14.546Z,0.0000
2023-05-21T00:55:16.203Z,0.0000
2023-05-21T00:56:17.849Z,0.0000
2023-05-21T00:57:19.518Z,0.0000
2023-05-21T00:58:21.154Z,0.0000
2023-05-21T00:59:22.833Z,0.0000
2023-05-21T01:00:24.506Z,0.0000
2023-05-21T01:01:26.182Z,0.0000
2023-05-21T01:02:27.823Z,0.0000
2023-05-21T01:03:29.611Z,0.0000
2023-05-21T01:04:31.302Z,0.0000
2023-05-21T01:05:33.089Z,0.0000
2023-05-21T01:06:34.837Z,0.0000
2023-05-21T01:07:36.510Z,0.0000
2023-05-21T01:08:38.193Z,0.0000
2023-05-21T01:10:41.318Z,0.0000
2023-05-21T01:11:44.157Z,0.0000
2023-05-21T01:20:57.144Z,0.0000
2023-05-21T01:21:59.485Z,0.0000
2023-05-21T01:23:01.787Z,0.0000
2023-05-21T01:24:04.210Z,0.0000
2023-05-21T01:25:05.952Z,0.0000
2023-05-21T01:26:08.278Z,0.0000
2023-05-21T01:27:10.676Z,0.0000
2023-05-21T01:28:12.955Z,0.0000
2023-05-21T01:29:14.646Z,0.0000
2023-05-21T01:30:16.263Z,0.0000
2023-05-21T01:31:18.597Z,0.0000
2023-05-21T01:32:20.219Z,0.0000
2023-05-21T01:34:23.408Z,0.0000
2023-05-21T01:35:25.152Z,0.0000
2023-05-21T01:36:26.850Z,0.0000
2023-05-21T01:37:29.131Z,0.0000
2023-05-21T01:38:31.438Z,0.0000
2023-05-21T01:39:33.741Z,0.0000
2023-05-21T01:40:36.040Z,0.0000
2023-05-21T01:41:37.674Z,0.0000
2023-05-21T01:42:40.266Z,0.0000
2023-05-21T01:43:42.647Z,0.0000
2023-05-21T01:44:45.262Z,0.0000
2023-05-21T01:45:47.704Z,0.0000
2023-05-21T01:46:49.390Z,0.0000
2023-05-21T01:47:51.888Z,0.0000
2023-05-21T01:48:53.517Z,0.0000
2023-05-21T01:49:56.053Z,0.0000
2023-05-21T01:50:58.448Z,0.0000
2023-05-21T01:52:00.777Z,0.0000
2023-05-21T01:53:03.199Z,0.0000
2023-05-21T01:54:05.190Z,0.0000
2023-05-21T01:55:07.575Z,0.0000
2023-05-21T01:56:09.204Z,0.0000
2023-05-21T01:57:11.162Z,0.0000
2023-05-21T01:59:14.335Z,0.0000
2023-05-21T02:00:15.996Z,0.0000
2023-05-21T02:01:17.762Z,0.0000
2023-05-21T02:02:20.158Z,0.0000
2023-05-21T02:03:22.748Z,0.0000
2023-05-21T02:04:25.089Z,0.0000
2023-05-21T02:05:27.065Z,0.0000
2023-05-21T02:07:30.903Z,0.0000
2023-05-21T02:08:32.555Z,0.0000
2023-05-21T02:09:34.251Z,0.0000
2023-05-21T02:11:38.223Z,0.0000
2023-05-21T02:12:40.933Z,0.0000
2023-05-21T02:13:42.577Z,0.0000
2023-05-21T02:14:44.825Z,0.0000
2023-05-21T02:15:47.086Z,0.0000
2023-05-21T02:16:49.448Z,0.0000
2023-05-21T02:17:51.194Z,0.0000
2023-05-21T02:18:52.852Z,0.0000
2023-05-21T02:19:54.470Z,0.0000
2023-05-21T02:20:56.117Z,0.0000
2023-05-21T02:21:57.816Z,0.0000
2023-05-21T02:22:59.421Z,0.0000
2023-05-21T02:24:02.399Z,0.0000
2023-05-21T02:25:07.226Z,0.0000
2023-05-21T02:32:13.077Z,0.0000
2023-05-21T02:33:14.779Z,0.0000
2023-05-21T02:34:16.451Z,0.0000
2023-05-21T02:35:18.097Z,0.0000
2023-05-21T02:36:19.768Z,0.0000
2023-05-21T02:37:21.454Z,0.0000
2023-05-21T02:38:23.240Z,0.0000
2023-05-21T02:39:24.940Z,0.0000
2023-05-21T02:40:26.589Z,0.0000
2023-05-21T02:41:28.241Z,0.0000
2023-05-21T02:42:30.532Z,0.0000
2023-05-21T02:43:32.874Z,0.0000
2023-05-21T02:44:34.551Z,0.0000
2023-05-21T02:45:36.456Z,0.0000
2023-05-21T02:46:38.830Z,0.0000
2023-05-21T02:47:41.448Z,0.0000
2023-05-21T02:48:43.848Z,0.0000
2023-05-21T02:49:46.573Z,0.0000
2023-05-21T02:50:48.194Z,0.0000
2023-05-21T02:51:49.859Z,0.0000
2023-05-21T02:52:51.519Z,0.0000
2023-05-21T02:53:53.440Z,0.0000
2023-05-21T02:54:55.101Z,0.0000
2023-05-21T02:56:59.738Z,0.0000
2023-05-21T03:03:06.843Z,0.0000
2023-05-21T03:04:09.083Z,0.0000
2023-05-21T03:05:10.717Z,0.0000
2023-05-21T03:06:12.367Z,0.0000
2023-05-21T03:08:16.162Z,0.0000
2023-05-21T03:09:17.867Z,0.0000
2023-05-21T03:10:19.553Z,1.4545
2023-05-21T03:12:23.970Z,4.0000
2023-05-21T03:13:25.635Z,2.7273
2023-05-21T03:14:27.309Z,2.5455
2023-05-21T03:15:28.952Z,4.0000
2023-05-21T03:16:30.606Z,5.6364
2023-05-21T03:18:34.697Z,7.0909
2023-05-21T03:21:39.409Z,10.7273
2023-05-21T03:22:42.406Z,12.5455
2023-05-21T03:25:45.051Z,20.0000
2023-05-21T03:26:47.388Z,23.6364
2023-05-21T03:27:49.752Z,27.4545
2023-05-21T03:28:51.403Z,32.1818
2023-05-21T03:29:53.102Z,36.7273
2023-05-21T03:30:54.897Z,42.3636
2023-05-21T03:31:56.714Z,48.7273
2023-05-21T03:32:58.457Z,54.9091
2023-05-21T03:34:00.697Z,62.7273
2023-05-21T03:35:02.389Z,70.5455
2023-05-21T03:36:04.082Z,78.9091
2023-05-21T03:38:07.331Z,97.6364
2023-05-21T03:39:09.061Z,107.8182
2023-05-21T03:40:10.763Z,118.9091
2023-05-21T03:41:12.467Z,131.4545
2023-05-21T03:43:15.698Z,156.1818
2023-05-21T03:44:17.421Z,169.6364
2023-05-21T03:45:20.243Z,183.6364
2023-05-21T03:55:35.691Z,378.3636
2023-05-21T03:56:37.475Z,406.0000
2023-05-21T03:57:39.147Z,436.5454
2023-05-21T03:58:40.860Z,469.0909
2023-05-21T03:59:42.510Z,506.0000
2023-05-21T04:00:44.198Z,544.1818
2023-05-21T04:01:45.890Z,586.0000
2023-05-21T04:02:47.688Z,632.0000
2023-05-21T04:03:50.214Z,681.2727
2023-05-21T04:04:52.220Z,732.7273
2023-05-21T04:05:53.910Z,787.2727
2023-05-21T04:06:55.565Z,844.1818
2023-05-21T04:07:57.838Z,902.7273
2023-05-21T04:09:00.359Z,963.8182
2023-05-21T04:10:03.175Z,1027.8182
2023-05-21T04:11:04.873Z,1094.1818
2023-05-21T04:12:06.574Z,1161.0909
2023-05-21T04:13:08.260Z,1230.5454
2023-05-21T04:15:11.795Z,1374.9091
2023-05-21T04:16:13.550Z,1449.8182
2023-05-21T04:18:16.797Z,1608.3636
2023-05-21T04:19:18.609Z,1691.2727
2023-05-21T04:20:20.594Z,1771.4546
2023-05-21T04:22:24.524Z,1937.6364
2023-05-21T04:23:27.186Z,2019.0909
2023-05-21T04:24:28.909Z,2103.0908
2023-05-21T04:25:30.654Z,2184.5454
2023-05-21T04:26:32.336Z,2262.3635
2023-05-21T04:27:34.806Z,2343.6365
2023-05-21T04:28:37.108Z,2426.0000
2023-05-21T04:29:38.809Z,2508.7273
2023-05-21T04:30:40.516Z,2587.8181
2023-05-21T04:31:42.964Z,2667.0908
2023-05-21T04:32:44.757Z,2743.0908
2023-05-21T04:33:46.420Z,2815.0908
2023-05-21T04:34:48.128Z,2892.3635
2023-05-21T04:35:50.899Z,2968.7273
2023-05-21T04:44:03.968Z,3565.0908
2023-05-21T04:45:06.360Z,3636.7273
2023-05-21T04:46:08.034Z,3708.3635
2023-05-21T04:47:09.784Z,3781.0908
2023-05-21T04:48:12.323Z,3849.4546
2023-05-21T04:49:14.054Z,3918.3635
2023-05-21T04:50:15.706Z,3988.1819
2023-05-21T04:51:18.060Z,4056.5454
2023-05-21T04:52:19.759Z,4122.9092
2023-05-21T04:53:21.461Z,4197.8184
2023-05-21T04:54:23.170Z,4277.6362
2023-05-21T04:55:25.665Z,4358.9092
2023-05-21T04:56:28.031Z,4449.2729
2023-05-21T04:57:29.730Z,4540.5454
2023-05-21T04:58:31.446Z,4632.1816
2023-05-21T04:59:33.759Z,4725.4546
2023-05-21T05:00:36.082Z,4821.0908
2023-05-21T05:01:37.775Z,4917.6362
2023-05-21T05:03:41.759Z,5110.0000
2023-05-21T05:04:44.135Z,5206.1816
2023-05-21T05:05:45.843Z,5300.3638
2023-05-21T05:06:47.543Z,5391.2729
2023-05-21T05:07:49.519Z,5483.4546
2023-05-21T05:08:51.246Z,5574.5454
2023-05-21T05:09:52.951Z,5664.9092
2023-05-21T05:11:56.823Z,5837.2729
2023-05-21T05:12:58.994Z,5935.2729
2023-05-21T05:14:00.696Z,6031.6362
2023-05-21T05:15:02.774Z,6124.7271
2023-05-21T05:16:04.603Z,6214.0000
2023-05-21T05:17:06.318Z,6292.1816
2023-05-21T05:20:11.866Z,6506.7271
2023-05-21T05:21:14.350Z,6572.9092
2023-05-21T05:22:16.654Z,6637.2729
2023-05-21T05:24:20.651Z,6756.1816
2023-05-21T05:25:22.352Z,6815.4546
2023-05-21T05:26:24.059Z,6863.6362
2023-05-21T05:28:27.971Z,6972.1816
2023-05-21T05:29:30.274Z,7022.3638
2023-05-21T05:30:32.002Z,7073.0908
2023-05-21T05:33:37.846Z,7255.4546
2023-05-21T05:34:40.211Z,7336.7271
2023-05-21T05:35:42.566Z,7428.9092
2023-05-21T05:36:45.007Z,7529.6362
2023-05-21T05:37:46.741Z,7643.2729
2023-05-21T05:39:50.630Z,7880.0000
2023-05-21T05:40:52.987Z,8000.7271
2023-05-21T05:41:54.860Z,8131.8184
2023-05-21T05:42:56.783Z,8258.3633
2023-05-21T05:43:58.542Z,8377.6367
2023-05-21T05:45:01.655Z,8502.5459
2023-05-21T05:46:00.645Z,8626.4766
2023-05-21T05:47:02.581Z,8748.9092
2023-05-21T05:48:05.624Z,8874.3633
2023-05-21T05:49:07.988Z,8987.2725
2023-05-21T05:50:09.731Z,9104.3633
2023-05-21T05:51:12.110Z,9221.2725
2023-05-21T05:52:14.535Z,9328.3633
2023-05-21T05:53:16.285Z,9437.6367
2023-05-21T05:55:20.519Z,9681.4541
2023-05-21T05:56:23.101Z,9801.8184
2023-05-21T05:57:26.039Z,9924.7275
2023-05-21T06:04:37.275Z,10774.0000
2023-05-21T06:05:39.937Z,10884.3633
2023-05-21T06:07:41.571Z,11125.4541
2023-05-21T06:08:43.441Z,11251.6367
2023-05-21T06:09:45.857Z,11355.0908
2023-05-21T06:10:48.411Z,11451.6367
2023-05-21T06:11:51.052Z,11545.6367
2023-05-21T06:12:53.453Z,11642.3633
2023-05-21T06:13:55.192Z,11739.8184
2023-05-21T06:14:56.917Z,11830.7275
2023-05-21T06:15:59.310Z,11926.3633
2023-05-21T06:17:00.997Z,12042.5459
2023-05-21T06:20:05.052Z,12429.2725
2023-05-21T06:21:07.589Z,12557.4541
2023-05-21T06:22:10.019Z,12662.5459
2023-05-21T06:23:11.754Z,12793.8184
2023-05-21T06:24:14.105Z,12920.5459
2023-05-21T06:25:14.289Z,13057.5234
2023-05-21T06:32:24.803Z,14014.0000
2023-05-21T06:33:27.743Z,14187.8184
2023-05-21T06:34:27.672Z,14392.0000
2023-05-21T06:36:31.660Z,14923.6367
2023-05-21T06:37:33.392Z,15082.1816
2023-05-21T06:38:35.332Z,15012.3633
2023-05-21T06:39:37.275Z,15029.8184
2023-05-21T06:40:39.792Z,15051.6367
2023-05-21T06:41:42.348Z,15047.2725
2023-05-21T06:42:44.083Z,15038.5459
2023-05-21T06:43:46.321Z,15080.7275
2023-05-21T06:44:49.214Z,15093.8184
2023-05-21T06:45:50.985Z,15079.2725
2023-05-21T06:46:52.695Z,15056.0000
2023-05-21T06:47:54.468Z,15061.8184
2023-05-21T06:48:56.890Z,15029.8184
2023-05-21T06:49:59.213Z,15024.0000
2023-05-21T06:51:01.598Z,15042.9092
2023-05-21T06:52:03.365Z,15061.8184
2023-05-21T06:54:07.416Z,15600.0000
2023-05-21T06:55:09.167Z,15829.8184
2023-05-21T06:56:11.070Z,15627.6367
2023-05-21T06:57:12.820Z,15281.4541
2023-05-21T06:59:16.991Z,15069.0908
2023-05-21T07:02:20.874Z,15042.9092
2023-05-21T07:03:21.459Z,15434.6670
2023-05-21T07:10:32.031Z,18017.4551
2023-05-21T07:12:33.582Z,16789.8184
2023-05-21T07:13:35.916Z,16651.6367
2023-05-21T07:14:38.477Z,16261.8184
2023-05-21T07:15:40.218Z,16669.0918
2023-05-21T07:16:42.011Z,16045.0908
2023-05-21T07:17:43.779Z,15544.7275
2023-05-21T07:18:46.224Z,15319.2725
2023-05-21T07:19:48.289Z,15368.7275
2023-05-21T07:21:52.480Z,15738.1816
2023-05-21T07:22:55.053Z,15595.6367
2023-05-21T07:23:57.616Z,15376.0000
2023-05-21T07:24:59.338Z,16304.0000
2023-05-21T07:26:01.219Z,16859.6367
2023-05-21T07:27:08.766Z,15994.1816
2023-05-21T07:28:06.806Z,15502.4004
2023-05-21T07:37:21.512Z,16157.0908
2023-05-21T07:38:23.233Z,19162.1816
2023-05-21T07:39:25.115Z,23690.1816
2023-05-21T07:40:27.111Z,27530.1816
2023-05-21T07:41:29.272Z,26359.2734
2023-05-21T07:42:31.031Z,27285.8184
2023-05-21T07:43:32.768Z,22173.0918
2023-05-21T07:44:34.654Z,21495.2734
2023-05-21T07:45:37.404Z,25332.3633
2023-05-21T07:46:38.532Z,26931.8086
2023-05-21T07:48:40.104Z,23829.8184
2023-05-21T07:49:40.366Z,22299.4277
2023-05-21T07:50:40.241Z,20316.9531
2023-05-21T07:51:42.857Z,17813.8184
2023-05-21T07:52:45.426Z,17921.4551
2023-05-21T07:53:47.899Z,16740.3633
2023-05-21T07:54:49.908Z,16808.7266
2023-05-21T07:55:51.790Z,16238.5459
2023-05-21T07:58:56.678Z,20072.7266
2023-05-21T08:01:01.191Z,24363.6367
2023-05-21T08:02:03.536Z,17604.3633
2023-05-21T08:03:05.310Z,17230.5449
2023-05-21T08:04:07.359Z,17307.6367
2023-05-21T08:05:10.817Z,17186.9082
2023-05-21T08:06:11.348Z,17007.2383
2023-05-21T08:07:13.605Z,17793.4551
2023-05-21T08:08:16.210Z,21573.8184
2023-05-21T08:09:18.151Z,19442.9082
2023-05-21T08:11:22.589Z,19655.2734
2023-05-21T08:12:24.332Z,20087.2734
2023-05-21T08:13:26.793Z,22491.6367
2023-05-21T08:14:28.709Z,21124.3633
2023-05-21T08:16:33.512Z,18532.3633
2023-05-21T08:17:35.474Z,19517.0918
2023-05-21T08:18:37.727Z,19688.7266
2023-05-21T08:19:40.145Z,19777.4551
2023-05-21T08:20:42.926Z,17429.8184
2023-05-21T08:24:48.907Z,22462.5449
2023-05-21T08:25:51.727Z,17856.0000
2023-05-21T08:27:56.081Z,26027.6367
2023-05-21T08:28:58.411Z,22545.4551
2023-05-21T08:30:00.850Z,20381.0918
2023-05-21T08:31:02.568Z,17310.5449
2023-05-21T08:32:04.318Z,17466.1816
2023-05-21T08:33:06.786Z,18818.9082
2023-05-21T08:34:08.537Z,22644.3633
2023-05-21T08:35:10.258Z,36001.4531
2023-05-21T08:36:12.076Z,40478.5469
2023-05-21T08:37:14.081Z,29717.8184
2023-05-21T08:38:16.468Z,27719.2734
2023-05-21T08:39:18.919Z,40237.0898
2023-05-21T08:40:21.239Z,39800.7266
2023-05-21T08:41:22.950Z,25064.7266
2023-05-21T08:42:35.742Z,24532.3633
2023-05-21T08:44:31.184Z,22196.3633
2023-05-21T08:50:38.382Z,41194.1836
2023-05-21T08:53:41.227Z,27333.8184
2023-05-21T08:54:42.942Z,28840.7266
2023-05-21T08:55:44.677Z,26682.1816
2023-05-21T08:56:47.154Z,22933.8184
2023-05-21T08:58:07.757Z,21696.0000
2023-05-21T08:58:50.599Z,25181.8672
2023-05-21T08:59:53.019Z,27495.0918
2023-05-21T09:00:55.441Z,22392.7266
2023-05-21T09:01:57.271Z,27144.7266
2023-05-21T09:02:59.980Z,21854.5449
2023-05-21T09:04:16.155Z,38183.2734
2023-05-21T09:05:04.387Z,55700.8008
2023-05-21T09:06:06.145Z,37755.6367
2023-05-21T09:07:08.605Z,51601.4531
2023-05-21T09:08:11.390Z,66786.9062
2023-05-21T09:09:13.108Z,62167.2734
2023-05-21T09:12:19.452Z,67774.5469
2023-05-21T09:13:21.849Z,73543.2734
2023-05-21T09:14:23.585Z,66077.0938
2023-05-21T09:16:27.575Z,29470.5449
2023-05-21T09:17:30.093Z,53419.6367
2023-05-21T09:18:31.800Z,72737.4531
2023-05-21T09:19:33.711Z,70110.5469
2023-05-21T09:20:36.545Z,67528.7266
2023-05-21T09:24:40.701Z,62293.8164
2023-05-21T09:25:42.468Z,67982.5469
2023-05-21T09:26:45.133Z,76254.5469
2023-05-21T09:27:45.104Z,72504.0000
2023-05-21T09:28:47.522Z,66074.1797
2023-05-21T09:29:49.260Z,65175.2734
2023-05-21T09:31:00.060Z,41258.1836
2023-05-21T09:37:06.443Z,88213.8203
2023-05-21T09:41:09.789Z,51634.9102
2023-05-21T09:42:11.987Z,54039.2734
2023-05-21T09:44:15.754Z,45291.6367
2023-05-21T09:45:17.712Z,46907.6367
2023-05-21T09:46:19.482Z,60037.8164
2023-05-21T09:48:22.794Z,52999.2734
2023-05-21T09:49:26.212Z,57762.9102
2023-05-21T09:53:31.143Z,51424.0000
2023-05-21T09:54:32.864Z,49954.9102
2023-05-21T09:55:34.622Z,54299.6367
2023-05-21T09:56:36.464Z,47045.8164
2023-05-21T09:57:38.174Z,62672.0000
2023-05-21T09:58:39.953Z,70778.1797
2023-05-21T09:59:41.703Z,53272.7266
2023-05-21T10:00:43.461Z,61812.3633
2023-05-21T10:02:47.585Z,58542.5469
2023-05-21T10:03:50.739Z,45378.9102
2023-05-21T10:04:50.474Z,32550.0957
2023-05-21T10:06:54.399Z,20024.7266
2023-05-21T10:07:56.735Z,21237.8184
2023-05-21T10:08:59.085Z,21786.1816
2023-05-21T10:10:00.825Z,24884.3633
2023-05-21T10:11:02.687Z,31361.4551
2023-05-21T10:12:05.467Z,27460.3633
2023-05-21T10:13:07.897Z,29022.5449
2023-05-21T10:14:09.649Z,23204.3633
2023-05-21T10:15:11.374Z,21723.6367
2023-05-21T10:16:13.865Z,28075.6367
2023-05-21T10:17:16.382Z,45632.0000
2023-05-21T10:18:18.708Z,37701.8164
2023-05-21T10:19:21.220Z,25957.8184
2023-05-21T10:20:22.970Z,30136.7266
2023-05-21T10:21:25.271Z,45220.3633
2023-05-21T10:22:27.708Z,58446.5469
2023-05-21T10:23:29.529Z,52762.1836
2023-05-21T10:24:31.248Z,74584.7266
2023-05-21T10:26:35.340Z,55016.7266
2023-05-21T10:27:37.944Z,68642.9062
2023-05-21T10:28:40.407Z,77320.7266
2023-05-21T10:29:42.615Z,68561.4531
2023-05-21T10:30:45.135Z,60674.9102
2023-05-21T10:31:47.573Z,47034.1836
2023-05-21T10:32:50.372Z,58695.2734
2023-05-21T10:34:04.982Z,76727.2734
2023-05-21T10:35:55.146Z,62801.4531
2023-05-21T10:36:57.969Z,81355.6328
2023-05-21T10:39:20.814Z,61169.4531
2023-05-21T10:40:01.081Z,79531.4297
2023-05-21T10:41:02.809Z,80206.5469
2023-05-21T10:42:05.191Z,58145.4531
2023-05-21T10:43:07.527Z,40657.4531
2023-05-21T10:44:10.067Z,37024.0000
2023-05-21T10:45:11.834Z,40836.3633
2023-05-21T10:46:13.611Z,54573.0898
2023-05-21T10:47:16.069Z,64688.0000
2023-05-21T10:48:18.970Z,65112.7266
2023-05-21T10:51:21.205Z,39762.9102
2023-05-21T10:52:22.960Z,41351.2734
2023-05-21T10:53:24.826Z,47032.7266
2023-05-21T10:54:26.669Z,49581.0898
2023-05-21T10:55:28.965Z,41345.4531
2023-05-21T10:56:30.673Z,58529.4531
2023-05-21T10:57:33.067Z,64711.2734
2023-05-21T10:58:34.847Z,60056.7266
2023-05-21T10:59:36.609Z,54763.6367
2023-05-21T11:00:38.464Z,53138.9102
2023-05-21T11:03:44.880Z,68379.6328
2023-05-21T11:04:46.637Z,70225.4531
2023-05-21T11:05:48.466Z,71988.3672
2023-05-21T11:06:50.231Z,64910.5469
2023-05-21T11:07:52.126Z,84234.1797
2023-05-21T11:08:55.362Z,84253.0938
2023-05-21T11:09:54.714Z,83541.3359
2023-05-21T11:10:58.564Z,79150.5469
2023-05-21T11:11:58.216Z,62424.3828
2023-05-21T11:13:00.601Z,68907.6328
2023-05-21T11:14:03.152Z,45879.2734
2023-05-21T11:15:05.455Z,45355.6367
2023-05-21T11:17:09.685Z,71467.6328
2023-05-21T11:18:12.668Z,61297.4531
2023-05-21T11:27:27.550Z,73973.8203
2023-05-21T11:28:29.322Z,75563.6328
2023-05-21T11:29:31.109Z,71725.0938
2023-05-21T11:30:35.238Z,71982.5469
2023-05-21T11:31:35.441Z,68091.4297
2023-05-21T11:32:37.170Z,73544.7266
2023-05-21T11:33:38.910Z,75573.8203
2023-05-21T11:34:40.657Z,75669.8203
2023-05-21T11:36:44.838Z,71906.9062
2023-05-21T11:37:47.233Z,72242.9062
2023-05-21T11:38:49.684Z,72400.0000
2023-05-21T11:39:52.744Z,79952.0000
2023-05-21T11:40:52.862Z,82281.1406
2023-05-21T11:41:53.409Z,80236.1875
2023-05-21T11:44:57.199Z,75703.2734
2023-05-21T11:49:43.362Z,71987.2031
2023-05-21T11:50:44.248Z,69060.5703
2023-05-21T11:51:46.206Z,70299.6328
2023-05-21T11:52:48.871Z,72315.6328
2023-05-21T11:53:51.512Z,74354.9062
2023-05-21T11:54:53.344Z,74216.7266
2023-05-21T11:55:55.278Z,74641.4531
2023-05-21T11:56:57.272Z,76174.5469
2023-05-21T11:57:59.682Z,77073.4531
2023-05-21T11:59:00.629Z,77534.4766
2023-05-21T12:00:00.835Z,77196.1875
2023-05-21T12:01:03.672Z,76788.3672
2023-05-21T12:02:06.262Z,77224.7266
2023-05-21T12:03:08.993Z,75010.9062
2023-05-21T12:04:10.852Z,76120.7266
2023-05-21T12:05:13.338Z,77978.1797
2023-05-21T12:07:17.659Z,77556.3672
2023-05-21T12:12:24.204Z,71213.0938
2023-05-21T12:13:26.572Z,68897.4531
2023-05-21T12:18:35.482Z,58187.6367
2023-05-21T12:20:37.316Z,57794.9102
2023-05-21T12:22:38.493Z,59377.4531
2023-05-21T12:25:44.153Z,62433.4531
2023-05-21T12:26:46.156Z,63229.0898
2023-05-21T12:27:48.106Z,64631.2734
2023-05-21T12:28:48.186Z,61750.8555
2023-05-21T12:29:50.016Z,61716.3633
2023-05-21T12:30:52.304Z,58424.7266
2023-05-21T12:31:54.265Z,58926.5469
2023-05-21T12:32:57.203Z,59115.6367
2023-05-21T12:33:59.598Z,53168.0000
2023-05-21T12:35:02.232Z,45632.0000
2023-05-21T12:36:04.762Z,39181.0898
2023-05-21T12:37:07.171Z,41838.5469
2023-05-21T12:43:15.219Z,50221.0898
2023-05-21T12:44:17.231Z,46823.2734
2023-05-21T12:45:19.242Z,45140.3633
2023-05-21T12:46:21.763Z,41342.5469
2023-05-21T12:47:24.368Z,37592.7266
2023-05-21T12:48:26.946Z,35342.5469
2023-05-21T12:49:29.857Z,33658.1836
2023-05-21T12:50:30.540Z,34538.6680
2023-05-21T12:51:32.981Z,37205.8164
2023-05-21T12:52:34.796Z,40994.9102
2023-05-21T12:53:36.555Z,43956.3633
2023-05-21T12:54:39.688Z,42209.4531
2023-05-21T12:58:44.769Z,38817.4531
2023-05-21T12:59:47.124Z,36782.5469
2023-05-21T13:00:49.499Z,35093.8164
2023-05-21T13:01:52.143Z,35794.9102
2023-05-21T13:02:54.878Z,38804.3633
2023-05-21T13:03:57.638Z,40568.7266
2023-05-21T13:04:57.229Z,42342.0938
2023-05-21T13:06:00.045Z,43530.1836
2023-05-21T13:07:04.849Z,44738.9102
2023-05-21T13:08:04.836Z,47981.7148
2023-05-21T13:09:06.556Z,52747.6367
2023-05-21T13:10:08.324Z,56705.4531
2023-05-21T13:11:10.964Z,55144.4219
2023-05-21T13:12:12.835Z,50123.6367
2023-05-21T13:13:14.612Z,50629.8164
2023-05-21T13:14:16.453Z,49118.5469
2023-05-21T13:15:18.879Z,50088.7266
2023-05-21T13:16:21.648Z,47547.6367
2023-05-21T13:24:35.091Z,36989.0898
2023-05-21T13:26:36.661Z,39780.3633
2023-05-21T13:27:39.177Z,40500.3633
2023-05-21T13:28:42.673Z,41297.4531
2023-05-21T13:29:42.516Z,39484.9531
2023-05-21T13:30:45.019Z,40090.1836
2023-05-21T13:31:47.533Z,40888.7266
2023-05-21T13:32:49.472Z,39639.2734
2023-05-21T13:33:51.454Z,39774.5469
2023-05-21T13:35:55.851Z,46327.2734
2023-05-21T13:36:58.452Z,48645.8164
2023-05-21T13:38:01.054Z,50257.4531
2023-05-21T13:39:03.449Z,50197.8164
2023-05-21T13:40:05.273Z,49485.0898
2023-05-21T13:41:07.688Z,47572.3633
2023-05-21T13:42:10.278Z,45200.0000
2023-05-21T13:43:12.866Z,39805.0898
2023-05-21T13:44:15.374Z,35431.2734
2023-05-21T13:45:17.177Z,33330.9102
2023-05-21T13:46:19.048Z,32132.3633
2023-05-21T13:47:21.374Z,31392.0000
2023-05-21T13:48:23.875Z,30181.8184
2023-05-21T13:49:26.373Z,29361.4551
2023-05-21T13:51:38.806Z,29066.1816
2023-05-21T13:52:30.463Z,28452.8008
2023-05-21T13:53:32.942Z,28640.0000
2023-05-21T13:54:33.721Z,27785.1426
2023-05-21T13:55:33.530Z,26281.1426
2023-05-21T13:56:35.277Z,25403.4277
2023-05-21T13:57:37.959Z,25725.0918
2023-05-21T13:58:39.790Z,26926.5449
2023-05-21T14:00:44.006Z,28859.6367
2023-05-21T14:01:44.535Z,29609.1426
2023-05-21T14:02:44.314Z,34299.4297
2023-05-21T14:03:46.880Z,35458.9102
2023-05-21T14:04:49.559Z,31150.5449
2023-05-21T14:05:51.534Z,31448.7266
2023-05-21T14:06:53.348Z,33560.7266
2023-05-21T14:07:55.935Z,37858.9102
2023-05-21T14:10:59.491Z,35040.0000
2023-05-21T14:12:01.731Z,34286.5469
2023-05-21T14:13:15.370Z,42917.8164
2023-05-21T14:14:04.434Z,54741.8945
2023-05-21T14:15:06.975Z,60964.3633
2023-05-21T14:16:08.810Z,61758.5469
2023-05-21T14:18:11.668Z,65225.1445
2023-05-21T14:19:15.100Z,67796.3672
2023-05-21T14:28:28.786Z,44852.3633
2023-05-21T14:29:31.265Z,43419.6367
2023-05-21T14:30:33.615Z,40039.2734
2023-05-21T14:31:36.108Z,37944.7266
2023-05-21T14:33:39.562Z,44218.1836
2023-05-21T14:34:41.352Z,46357.8164
2023-05-21T14:35:44.404Z,44609.4531
2023-05-21T14:39:48.437Z,37096.7266
2023-05-21T14:40:51.093Z,40459.6367
2023-05-21T14:41:53.751Z,41313.4531
2023-05-21T14:42:56.089Z,39189.8164
2023-05-21T14:43:58.497Z,37237.8164
2023-05-21T14:45:16.816Z,37365.8164
2023-05-21T14:47:05.956Z,40018.9102
2023-05-21T14:48:08.593Z,40445.0898
2023-05-21T14:49:11.532Z,41732.3633
2023-05-21T14:55:21.532Z,16434.9082
2023-05-21T14:56:23.981Z,16209.4541
2023-05-21T14:57:26.456Z,15995.6367
2023-05-21T14:59:28.742Z,15808.0000
2023-05-21T15:00:32.028Z,15864.7275
2023-05-21T15:08:45.557Z,15629.0908
2023-05-21T15:12:53.609Z,23742.5449
2023-05-21T15:15:57.189Z,25442.9082
2023-05-21T15:16:59.679Z,29044.3633
2023-05-21T15:18:02.364Z,30856.7266
2023-05-21T15:20:04.612Z,34162.9102
2023-05-21T15:21:07.082Z,34461.0898
2023-05-21T15:22:09.547Z,33874.9102
2023-05-21T15:23:17.290Z,35786.1836
2023-05-21T15:24:14.171Z,37931.1992
2023-05-21T15:25:18.316Z,38462.5469
2023-05-21T15:26:17.981Z,40222.4766
2023-05-21T15:27:20.941Z,42104.7266
2023-05-21T15:29:22.515Z,42347.6367
2023-05-21T15:30:25.038Z,43093.8164
2023-05-21T15:31:27.131Z,42958.5469
2023-05-21T15:32:29.152Z,43016.7266
2023-05-21T15:33:31.677Z,44100.3633
2023-05-21T15:34:33.358Z,44878.3984
2023-05-21T15:35:35.349Z,40554.1836
2023-05-21T15:36:37.378Z,41320.7266
2023-05-21T15:37:39.231Z,46765.0898
2023-05-21T15:38:41.564Z,50055.2734
2023-05-21T15:39:44.137Z,50186.1836
2023-05-21T15:42:48.530Z,50584.7266
2023-05-21T15:43:50.989Z,50469.8164
2023-05-21T15:44:52.861Z,49650.9102
2023-05-21T15:46:56.651Z,46890.1836
2023-05-21T15:47:58.472Z,46173.0898
2023-05-21T15:49:01.601Z,45877.8164
2023-05-21T15:51:02.280Z,47528.7266
2023-05-21T15:52:04.408Z,49073.4531
2023-05-21T15:53:06.277Z,49010.9102
2023-05-21T15:54:19.872Z,47857.4531
2023-05-21T15:55:11.161Z,46014.2227
2023-05-21T15:56:12.950Z,44503.2734
2023-05-21T15:57:14.800Z,43584.0000
2023-05-21T15:58:39.853Z,43352.7266
2023-05-21T16:00:21.612Z,44052.3633
2023-05-21T16:01:23.679Z,44064.0000